チューク諸島 の空港の天気 - METARとTAF

チューク国際空港 ( PTKK / TKK ) - ミクロネシア連邦 チューク諸島
飛行場実況気象(Metar)
観測時間07/01 19:51 +10 (07/01 09:51 UTC)
風向・風速東 3m/s
視程10km以上
天気現象弱いしゅう雨
全天の4割程度の雲 雲底高度 300m
全天を覆う雲 雲底高度 3350m
気温26.1℃
湿度93%
気圧1009.3hPa
METARPTKK 010951Z 08006KT 10SM -SHRA SCT010CB OVC110 26/25 A2980 RMK SHRAB18 CB ALQDS MOV W SLP093 T02610249
過去の天気等 Google飛行場航空写真 Wunderground天気予報

過去48時間のMETAR

飛行場予報(TAF)
発表時間: 7/01 15:23 +10 (7/01 05:23 UTC)
予報対象時間: 1日16時 +10 ~ 2日16時 +10
風向・風速東北東 6m/s
視程10km以上
天気現象周辺でしゅう雨
全天の4割程度の雲 雲底高度 430m
全天の4割程度の雲 雲底高度 3660m
1日16時 +10 ~ 1日18時 +10 に一時的に
天気現象弱いしゅう雨
全天の4割程度の雲 雲底高度 430m
全天の8割程度の雲 雲底高度 1070m
PTKK 010523Z 0106/0206 06011KT P6SM VCSH SCT014 SCT120
TEMPO 0106/0108 -SHRA SCT014 BKN035